sensor_id;sensor_type;location;lat;lon;timestamp;temperature;humidity
14473;DHT22;7322;50.872;4.386;2023-07-30T00:02:05;24.80;99.90
14473;DHT22;7322;50.872;4.386;2023-07-30T00:04:40;24.90;99.90
14473;DHT22;7322;50.872;4.386;2023-07-30T00:07:06;25.00;99.90
14473;DHT22;7322;50.872;4.386;2023-07-30T00:09:34;25.00;99.90
14473;DHT22;7322;50.872;4.386;2023-07-30T00:12:08;25.00;99.90
14473;DHT22;7322;50.872;4.386;2023-07-30T00:14:37;25.00;99.90
14473;DHT22;7322;50.872;4.386;2023-07-30T00:17:04;25.00;99.90
14473;DHT22;7322;50.872;4.386;2023-07-30T00:19:39;25.10;99.90
14473;DHT22;7322;50.872;4.386;2023-07-30T00:22:29;25.10;99.90
14473;DHT22;7322;50.872;4.386;2023-07-30T00:28:07;25.10;99.90
14473;DHT22;7322;50.872;4.386;2023-07-30T00:30:36;24.90;99.90
14473;DHT22;7322;50.872;4.386;2023-07-30T00:33:10;25.00;99.90
14473;DHT22;7322;50.872;4.386;2023-07-30T00:35:38;25.00;99.90
14473;DHT22;7322;50.872;4.386;2023-07-30T00:38:05;24.90;99.90
14473;DHT22;7322;50.872;4.386;2023-07-30T00:40:40;24.80;99.90
14473;DHT22;7322;50.872;4.386;2023-07-30T00:43:08;24.90;99.90
14473;DHT22;7322;50.872;4.386;2023-07-30T00:45:42;24.80;99.90
14473;DHT22;7322;50.872;4.386;2023-07-30T00:48:11;25.00;99.90
14473;DHT22;7322;50.872;4.386;2023-07-30T00:50:41;25.00;99.90
14473;DHT22;7322;50.872;4.386;2023-07-30T00:53:11;25.00;99.90
14473;DHT22;7322;50.872;4.386;2023-07-30T00:55:51;25.00;99.90
14473;DHT22;7322;50.872;4.386;2023-07-30T00:58:20;25.00;99.90
14473;DHT22;7322;50.872;4.386;2023-07-30T01:01:09;24.80;99.90
14473;DHT22;7322;50.872;4.386;2023-07-30T01:03:37;24.90;99.90
14473;DHT22;7322;50.872;4.386;2023-07-30T01:06:11;24.90;99.90
14473;DHT22;7322;50.872;4.386;2023-07-30T01:08:53;25.00;99.90
14473;DHT22;7322;50.872;4.386;2023-07-30T01:11:20;25.00;99.90
14473;DHT22;7322;50.872;4.386;2023-07-30T01:13:58;25.00;99.90
14473;DHT22;7322;50.872;4.386;2023-07-30T01:16:26;25.10;99.90
14473;DHT22;7322;50.872;4.386;2023-07-30T01:18:59;25.10;99.90
14473;DHT22;7322;50.872;4.386;2023-07-30T01:21:50;25.10;99.90
14473;DHT22;7322;50.872;4.386;2023-07-30T01:24:17;25.00;99.90
14473;DHT22;7322;50.872;4.386;2023-07-30T01:26:49;25.00;99.90
14473;DHT22;7322;50.872;4.386;2023-07-30T01:29:28;25.10;99.90
14473;DHT22;7322;50.872;4.386;2023-07-30T01:32:06;25.00;99.90
14473;DHT22;7322;50.872;4.386;2023-07-30T01:34:35;25.00;99.90
14473;DHT22;7322;50.872;4.386;2023-07-30T01:37:09;25.00;99.90
14473;DHT22;7322;50.872;4.386;2023-07-30T01:39:39;25.10;99.90
14473;DHT22;7322;50.872;4.386;2023-07-30T01:42:07;25.00;99.90
14473;DHT22;7322;50.872;4.386;2023-07-30T01:44:40;25.00;99.90
14473;DHT22;7322;50.872;4.386;2023-07-30T01:47:13;25.10;99.90
14473;DHT22;7322;50.872;4.386;2023-07-30T01:49:41;25.10;99.90
14473;DHT22;7322;50.872;4.386;2023-07-30T01:52:10;25.10;99.90
14473;DHT22;7322;50.872;4.386;2023-07-30T01:54:40;25.20;99.90
14473;DHT22;7322;50.872;4.386;2023-07-30T01:57:10;25.00;99.90
14473;DHT22;7322;50.872;4.386;2023-07-30T01:59:46;25.00;99.90
14473;DHT22;7322;50.872;4.386;2023-07-30T02:02:13;24.80;99.90
14473;DHT22;7322;50.872;4.386;2023-07-30T02:04:46;24.70;99.90
14473;DHT22;7322;50.872;4.386;2023-07-30T02:07:17;24.50;99.90
14473;DHT22;7322;50.872;4.386;2023-07-30T02:13:10;24.50;99.90
14473;DHT22;7322;50.872;4.386;2023-07-30T02:15:40;24.40;99.90
14473;DHT22;7322;50.872;4.386;2023-07-30T02:18:10;24.30;99.90
14473;DHT22;7322;50.872;4.386;2023-07-30T02:20:39;24.30;99.90
14473;DHT22;7322;50.872;4.386;2023-07-30T02:23:14;24.30;99.90
14473;DHT22;7322;50.872;4.386;2023-07-30T02:25:41;24.30;99.90
14473;DHT22;7322;50.872;4.386;2023-07-30T02:28:10;24.20;99.90
14473;DHT22;7322;50.872;4.386;2023-07-30T02:30:42;24.00;99.90
14473;DHT22;7322;50.872;4.386;2023-07-30T02:33:21;24.00;99.90
14473;DHT22;7322;50.872;4.386;2023-07-30T02:35:48;24.00;99.90
14473;DHT22;7322;50.872;4.386;2023-07-30T02:38:19;24.10;99.90
14473;DHT22;7322;50.872;4.386;2023-07-30T02:40:46;24.10;99.90
14473;DHT22;7322;50.872;4.386;2023-07-30T02:43:13;23.90;99.90
14473;DHT22;7322;50.872;4.386;2023-07-30T02:45:40;23.90;99.90
14473;DHT22;7322;50.872;4.386;2023-07-30T02:48:07;23.80;99.90
14473;DHT22;7322;50.872;4.386;2023-07-30T02:50:40;23.80;99.90
14473;DHT22;7322;50.872;4.386;2023-07-30T02:53:19;23.70;99.90
14473;DHT22;7322;50.872;4.386;2023-07-30T02:55:48;23.80;99.90
14473;DHT22;7322;50.872;4.386;2023-07-30T02:58:17;23.70;99.90
14473;DHT22;7322;50.872;4.386;2023-07-30T03:00:50;23.80;99.90
14473;DHT22;7322;50.872;4.386;2023-07-30T03:03:23;23.80;99.90
14473;DHT22;7322;50.872;4.386;2023-07-30T03:05:55;23.80;99.90
14473;DHT22;7322;50.872;4.386;2023-07-30T03:08:26;23.90;99.90
14473;DHT22;7322;50.872;4.386;2023-07-30T03:11:03;23.90;99.90
14473;DHT22;7322;50.872;4.386;2023-07-30T03:13:37;24.00;99.90
14473;DHT22;7322;50.872;4.386;2023-07-30T03:16:06;23.90;99.90
14473;DHT22;7322;50.872;4.386;2023-07-30T03:18:38;23.90;99.90
14473;DHT22;7322;50.872;4.386;2023-07-30T03:21:27;23.90;99.90
14473;DHT22;7322;50.872;4.386;2023-07-30T03:24:05;24.00;99.90
14473;DHT22;7322;50.872;4.386;2023-07-30T03:26:34;23.80;99.90
14473;DHT22;7322;50.872;4.386;2023-07-30T03:29:06;23.80;99.90
14473;DHT22;7322;50.872;4.386;2023-07-30T03:31:40;23.70;99.90
14473;DHT22;7322;50.872;4.386;2023-07-30T03:37:05;23.80;99.90
14473;DHT22;7322;50.872;4.386;2023-07-30T03:39:41;23.80;99.90
14473;DHT22;7322;50.872;4.386;2023-07-30T03:42:09;23.70;99.90
14473;DHT22;7322;50.872;4.386;2023-07-30T03:44:39;23.70;99.90
14473;DHT22;7322;50.872;4.386;2023-07-30T03:47:06;23.60;99.90
14473;DHT22;7322;50.872;4.386;2023-07-30T03:49:40;23.60;99.90
14473;DHT22;7322;50.872;4.386;2023-07-30T03:52:09;23.60;99.90
14473;DHT22;7322;50.872;4.386;2023-07-30T03:54:38;23.50;99.90
14473;DHT22;7322;50.872;4.386;2023-07-30T03:57:12;23.50;99.90
14473;DHT22;7322;50.872;4.386;2023-07-30T03:59:40;23.50;99.90
14473;DHT22;7322;50.872;4.386;2023-07-30T04:02:07;23.50;99.90
14473;DHT22;7322;50.872;4.386;2023-07-30T04:04:40;23.50;99.90
14473;DHT22;7322;50.872;4.386;2023-07-30T04:07:10;23.40;99.90
14473;DHT22;7322;50.872;4.386;2023-07-30T04:09:44;23.40;99.90
14473;DHT22;7322;50.872;4.386;2023-07-30T04:12:22;23.40;99.90
14473;DHT22;7322;50.872;4.386;2023-07-30T04:14:51;23.50;99.90
14473;DHT22;7322;50.872;4.386;2023-07-30T04:17:22;23.50;99.90
14473;DHT22;7322;50.872;4.386;2023-07-30T04:20:00;23.60;99.90
14473;DHT22;7322;50.872;4.386;2023-07-30T04:22:38;23.60;99.90
14473;DHT22;7322;50.872;4.386;2023-07-30T04:25:08;23.50;99.90
14473;DHT22;7322;50.872;4.386;2023-07-30T04:27:58;23.50;99.90
14473;DHT22;7322;50.872;4.386;2023-07-30T04:30:26;23.50;99.90
14473;DHT22;7322;50.872;4.386;2023-07-30T04:33:03;23.50;99.90
14473;DHT22;7322;50.872;4.386;2023-07-30T04:36:02;23.50;99.90
14473;DHT22;7322;50.872;4.386;2023-07-30T04:38:31;23.50;99.90
14473;DHT22;7322;50.872;4.386;2023-07-30T04:41:00;23.40;99.90
14473;DHT22;7322;50.872;4.386;2023-07-30T04:43:39;23.30;99.90
14473;DHT22;7322;50.872;4.386;2023-07-30T04:46:13;23.40;99.90
14473;DHT22;7322;50.872;4.386;2023-07-30T04:48:41;23.50;99.90
14473;DHT22;7322;50.872;4.386;2023-07-30T04:51:09;23.50;99.90
14473;DHT22;7322;50.872;4.386;2023-07-30T04:53:39;23.40;99.90
14473;DHT22;7322;50.872;4.386;2023-07-30T04:56:13;23.40;99.90
14473;DHT22;7322;50.872;4.386;2023-07-30T04:58:43;23.40;99.90
14473;DHT22;7322;50.872;4.386;2023-07-30T05:01:09;23.50;99.90
14473;DHT22;7322;50.872;4.386;2023-07-30T05:03:38;23.50;99.90
14473;DHT22;7322;50.872;4.386;2023-07-30T05:06:08;23.60;99.90
14473;DHT22;7322;50.872;4.386;2023-07-30T05:08:36;23.60;99.90
14473;DHT22;7322;50.872;4.386;2023-07-30T05:11:08;23.60;99.90
14473;DHT22;7322;50.872;4.386;2023-07-30T05:13:38;23.60;99.90
14473;DHT22;7322;50.872;4.386;2023-07-30T05:16:13;23.60;99.90
14473;DHT22;7322;50.872;4.386;2023-07-30T05:18:40;23.60;99.90
14473;DHT22;7322;50.872;4.386;2023-07-30T05:21:13;23.60;99.90
14473;DHT22;7322;50.872;4.386;2023-07-30T05:23:59;23.60;99.90
14473;DHT22;7322;50.872;4.386;2023-07-30T05:26:44;23.60;99.90
14473;DHT22;7322;50.872;4.386;2023-07-30T05:29:16;23.50;99.90
14473;DHT22;7322;50.872;4.386;2023-07-30T05:31:51;23.40;99.90
14473;DHT22;7322;50.872;4.386;2023-07-30T05:34:19;23.50;99.90
14473;DHT22;7322;50.872;4.386;2023-07-30T05:36:53;23.50;99.90
14473;DHT22;7322;50.872;4.386;2023-07-30T05:39:34;23.40;99.90
14473;DHT22;7322;50.872;4.386;2023-07-30T05:42:02;23.40;99.90
14473;DHT22;7322;50.872;4.386;2023-07-30T05:44:38;23.40;99.90
14473;DHT22;7322;50.872;4.386;2023-07-30T05:47:40;23.50;99.90
14473;DHT22;7322;50.872;4.386;2023-07-30T05:50:10;23.40;99.90
14473;DHT22;7322;50.872;4.386;2023-07-30T05:52:45;23.30;99.90
14473;DHT22;7322;50.872;4.386;2023-07-30T05:55:21;23.30;99.90
14473;DHT22;7322;50.872;4.386;2023-07-30T05:57:48;23.30;99.90
14473;DHT22;7322;50.872;4.386;2023-07-30T06:00:16;23.40;99.90
14473;DHT22;7322;50.872;4.386;2023-07-30T06:05:53;23.50;99.90
14473;DHT22;7322;50.872;4.386;2023-07-30T06:08:36;23.60;99.90
14473;DHT22;7322;50.872;4.386;2023-07-30T06:11:03;23.60;99.90
14473;DHT22;7322;50.872;4.386;2023-07-30T06:13:30;23.60;99.90
14473;DHT22;7322;50.872;4.386;2023-07-30T06:15:57;23.50;99.90
14473;DHT22;7322;50.872;4.386;2023-07-30T06:18:25;23.70;99.90
14473;DHT22;7322;50.872;4.386;2023-07-30T06:21:13;23.80;99.90
14473;DHT22;7322;50.872;4.386;2023-07-30T06:23:40;23.70;99.90
14473;DHT22;7322;50.872;4.386;2023-07-30T06:26:07;23.60;99.90
14473;DHT22;7322;50.872;4.386;2023-07-30T06:28:34;23.60;99.90
14473;DHT22;7322;50.872;4.386;2023-07-30T06:31:03;23.60;99.90
14473;DHT22;7322;50.872;4.386;2023-07-30T06:33:30;23.70;99.90
14473;DHT22;7322;50.872;4.386;2023-07-30T06:36:02;23.70;99.90
14473;DHT22;7322;50.872;4.386;2023-07-30T06:38:32;23.70;99.90
14473;DHT22;7322;50.872;4.386;2023-07-30T06:40:59;23.60;99.90
14473;DHT22;7322;50.872;4.386;2023-07-30T06:43:40;23.60;99.90
14473;DHT22;7322;50.872;4.386;2023-07-30T06:46:09;23.60;99.90
14473;DHT22;7322;50.872;4.386;2023-07-30T06:48:36;23.60;99.90
14473;DHT22;7322;50.872;4.386;2023-07-30T06:51:10;23.60;99.90
14473;DHT22;7322;50.872;4.386;2023-07-30T06:53:47;23.60;99.90
14473;DHT22;7322;50.872;4.386;2023-07-30T06:56:14;23.60;99.90
14473;DHT22;7322;50.872;4.386;2023-07-30T06:58:48;23.60;99.90
14473;DHT22;7322;50.872;4.386;2023-07-30T07:01:23;23.70;99.90
14473;DHT22;7322;50.872;4.386;2023-07-30T07:03:59;23.70;99.90
14473;DHT22;7322;50.872;4.386;2023-07-30T07:06:37;23.70;99.90
14473;DHT22;7322;50.872;4.386;2023-07-30T07:09:07;23.60;99.90
14473;DHT22;7322;50.872;4.386;2023-07-30T07:11:38;23.60;99.90
14473;DHT22;7322;50.872;4.386;2023-07-30T07:14:26;23.70;99.90
14473;DHT22;7322;50.872;4.386;2023-07-30T07:16:54;23.80;99.90
14473;DHT22;7322;50.872;4.386;2023-07-30T07:19:35;23.90;99.90
14473;DHT22;7322;50.872;4.386;2023-07-30T07:22:10;23.90;99.90
14473;DHT22;7322;50.872;4.386;2023-07-30T07:24:40;24.00;99.90
14473;DHT22;7322;50.872;4.386;2023-07-30T07:27:09;23.90;99.90
14473;DHT22;7322;50.872;4.386;2023-07-30T07:29:39;23.90;99.90
14473;DHT22;7322;50.872;4.386;2023-07-30T07:32:30;24.00;99.90
14473;DHT22;7322;50.872;4.386;2023-07-30T07:35:12;24.00;99.90
14473;DHT22;7322;50.872;4.386;2023-07-30T07:37:40;24.20;99.90
14473;DHT22;7322;50.872;4.386;2023-07-30T07:40:09;24.10;99.90
14473;DHT22;7322;50.872;4.386;2023-07-30T07:42:38;24.10;99.90
14473;DHT22;7322;50.872;4.386;2023-07-30T07:45:14;24.10;99.90
14473;DHT22;7322;50.872;4.386;2023-07-30T07:47:51;24.20;99.90
14473;DHT22;7322;50.872;4.386;2023-07-30T07:50:18;24.20;99.90
14473;DHT22;7322;50.872;4.386;2023-07-30T07:52:54;24.20;99.90
14473;DHT22;7322;50.872;4.386;2023-07-30T07:55:33;24.20;99.90
14473;DHT22;7322;50.872;4.386;2023-07-30T07:58:00;24.20;99.90
14473;DHT22;7322;50.872;4.386;2023-07-30T08:00:40;24.00;99.90
14473;DHT22;7322;50.872;4.386;2023-07-30T08:03:10;24.10;99.90
14473;DHT22;7322;50.872;4.386;2023-07-30T08:05:39;24.00;99.90
14473;DHT22;7322;50.872;4.386;2023-07-30T08:08:06;24.00;99.90
14473;DHT22;7322;50.872;4.386;2023-07-30T08:10:41;24.00;99.90
14473;DHT22;7322;50.872;4.386;2023-07-30T08:13:14;24.10;99.90
14473;DHT22;7322;50.872;4.386;2023-07-30T08:15:48;24.10;99.90
14473;DHT22;7322;50.872;4.386;2023-07-30T08:18:26;24.10;99.90
14473;DHT22;7322;50.872;4.386;2023-07-30T08:21:02;24.00;99.90
14473;DHT22;7322;50.872;4.386;2023-07-30T08:23:40;24.10;99.90
14473;DHT22;7322;50.872;4.386;2023-07-30T08:26:09;24.10;99.90
14473;DHT22;7322;50.872;4.386;2023-07-30T08:28:36;24.10;99.90
14473;DHT22;7322;50.872;4.386;2023-07-30T08:31:10;24.10;99.90
14473;DHT22;7322;50.872;4.386;2023-07-30T08:33:37;24.10;99.90
14473;DHT22;7322;50.872;4.386;2023-07-30T08:36:04;24.10;99.90
14473;DHT22;7322;50.872;4.386;2023-07-30T08:38:33;24.00;99.90
14473;DHT22;7322;50.872;4.386;2023-07-30T08:41:10;24.00;99.90
14473;DHT22;7322;50.872;4.386;2023-07-30T08:43:48;24.00;99.90
14473;DHT22;7322;50.872;4.386;2023-07-30T08:46:19;24.10;99.90
14473;DHT22;7322;50.872;4.386;2023-07-30T08:48:47;24.10;99.90
14473;DHT22;7322;50.872;4.386;2023-07-30T08:51:17;24.20;99.90
14473;DHT22;7322;50.872;4.386;2023-07-30T08:53:47;24.30;99.90
14473;DHT22;7322;50.872;4.386;2023-07-30T09:02:46;24.30;99.90
14473;DHT22;7322;50.872;4.386;2023-07-30T09:05:14;24.20;99.90
14473;DHT22;7322;50.872;4.386;2023-07-30T09:07:48;24.20;99.90
14473;DHT22;7322;50.872;4.386;2023-07-30T09:13:22;24.30;99.90
14473;DHT22;7322;50.872;4.386;2023-07-30T09:15:51;24.20;99.90
14473;DHT22;7322;50.872;4.386;2023-07-30T09:18:24;24.20;99.90
14473;DHT22;7322;50.872;4.386;2023-07-30T09:21:10;24.50;99.90
14473;DHT22;7322;50.872;4.386;2023-07-30T09:23:40;24.60;99.90
14473;DHT22;7322;50.872;4.386;2023-07-30T09:26:14;24.70;99.90
14473;DHT22;7322;50.872;4.386;2023-07-30T09:28:44;24.70;99.90
14473;DHT22;7322;50.872;4.386;2023-07-30T09:31:13;24.80;99.90
14473;DHT22;7322;50.872;4.386;2023-07-30T09:33:45;24.80;99.90
14473;DHT22;7322;50.872;4.386;2023-07-30T09:36:15;24.70;99.90
14473;DHT22;7322;50.872;4.386;2023-07-30T09:39:23;24.80;99.90
14473;DHT22;7322;50.872;4.386;2023-07-30T09:42:01;24.90;99.90
14473;DHT22;7322;50.872;4.386;2023-07-30T09:44:32;25.00;99.90
14473;DHT22;7322;50.872;4.386;2023-07-30T09:47:17;25.00;99.90
14473;DHT22;7322;50.872;4.386;2023-07-30T09:49:45;25.00;99.90
14473;DHT22;7322;50.872;4.386;2023-07-30T09:52:18;25.10;99.90
14473;DHT22;7322;50.872;4.386;2023-07-30T09:55:04;25.10;99.90
14473;DHT22;7322;50.872;4.386;2023-07-30T09:57:34;25.00;99.90
14473;DHT22;7322;50.872;4.386;2023-07-30T10:00:14;25.00;99.90
14473;DHT22;7322;50.872;4.386;2023-07-30T10:02:49;25.10;99.90
14473;DHT22;7322;50.872;4.386;2023-07-30T10:05:40;25.10;99.90
14473;DHT22;7322;50.872;4.386;2023-07-30T10:08:31;25.20;99.90
14473;DHT22;7322;50.872;4.386;2023-07-30T10:11:27;25.20;99.90
14473;DHT22;7322;50.872;4.386;2023-07-30T10:13:57;25.20;99.90
14473;DHT22;7322;50.872;4.386;2023-07-30T10:16:31;25.20;99.90
14473;DHT22;7322;50.872;4.386;2023-07-30T10:19:10;25.20;99.90
14473;DHT22;7322;50.872;4.386;2023-07-30T10:21:45;25.10;99.90
14473;DHT22;7322;50.872;4.386;2023-07-30T10:24:18;25.10;99.90
14473;DHT22;7322;50.872;4.386;2023-07-30T10:27:18;25.00;99.90
14473;DHT22;7322;50.872;4.386;2023-07-30T10:30:11;24.90;99.90
14473;DHT22;7322;50.872;4.386;2023-07-30T10:32:41;25.00;99.90
14473;DHT22;7322;50.872;4.386;2023-07-30T10:35:08;24.90;99.90
14473;DHT22;7322;50.872;4.386;2023-07-30T10:37:46;24.80;99.90
14473;DHT22;7322;50.872;4.386;2023-07-30T10:40:17;24.90;99.90
14473;DHT22;7322;50.872;4.386;2023-07-30T10:42:44;25.00;99.90
14473;DHT22;7322;50.872;4.386;2023-07-30T10:45:13;25.00;99.90
14473;DHT22;7322;50.872;4.386;2023-07-30T10:47:41;25.00;99.90
14473;DHT22;7322;50.872;4.386;2023-07-30T10:50:10;25.00;99.90
14473;DHT22;7322;50.872;4.386;2023-07-30T10:52:39;24.90;99.90
14473;DHT22;7322;50.872;4.386;2023-07-30T10:55:09;24.90;99.90
14473;DHT22;7322;50.872;4.386;2023-07-30T10:57:39;25.00;99.90
14473;DHT22;7322;50.872;4.386;2023-07-30T11:00:43;25.00;99.90
14473;DHT22;7322;50.872;4.386;2023-07-30T11:03:27;25.00;99.90
14473;DHT22;7322;50.872;4.386;2023-07-30T11:06:31;25.10;99.90
14473;DHT22;7322;50.872;4.386;2023-07-30T11:09:00;25.30;99.90
14473;DHT22;7322;50.872;4.386;2023-07-30T11:11:40;25.30;99.90
14473;DHT22;7322;50.872;4.386;2023-07-30T11:14:18;25.40;99.90
14473;DHT22;7322;50.872;4.386;2023-07-30T11:16:49;25.40;99.90
14473;DHT22;7322;50.872;4.386;2023-07-30T11:19:18;25.50;99.90
14473;DHT22;7322;50.872;4.386;2023-07-30T11:21:49;25.60;99.90
14473;DHT22;7322;50.872;4.386;2023-07-30T11:24:17;25.60;99.90
14473;DHT22;7322;50.872;4.386;2023-07-30T11:26:59;25.60;99.90
14473;DHT22;7322;50.872;4.386;2023-07-30T11:29:27;25.70;99.90
14473;DHT22;7322;50.872;4.386;2023-07-30T11:32:02;25.70;99.90
14473;DHT22;7322;50.872;4.386;2023-07-30T11:34:43;25.70;99.90
14473;DHT22;7322;50.872;4.386;2023-07-30T11:37:41;25.70;99.90
14473;DHT22;7322;50.872;4.386;2023-07-30T11:40:11;25.70;99.90
14473;DHT22;7322;50.872;4.386;2023-07-30T11:42:41;25.70;99.90
14473;DHT22;7322;50.872;4.386;2023-07-30T11:45:19;25.60;99.90
14473;DHT22;7322;50.872;4.386;2023-07-30T11:47:46;25.70;99.90
14473;DHT22;7322;50.872;4.386;2023-07-30T11:50:14;25.70;99.90
14473;DHT22;7322;50.872;4.386;2023-07-30T11:52:52;25.70;99.90
14473;DHT22;7322;50.872;4.386;2023-07-30T11:55:20;25.70;99.90
14473;DHT22;7322;50.872;4.386;2023-07-30T11:57:48;25.70;99.90
14473;DHT22;7322;50.872;4.386;2023-07-30T12:00:15;25.80;99.90
14473;DHT22;7322;50.872;4.386;2023-07-30T12:02:49;25.80;99.90
14473;DHT22;7322;50.872;4.386;2023-07-30T12:05:17;25.90;99.90
14473;DHT22;7322;50.872;4.386;2023-07-30T12:07:47;25.90;99.90
14473;DHT22;7322;50.872;4.386;2023-07-30T12:10:15;25.90;99.90
14473;DHT22;7322;50.872;4.386;2023-07-30T12:12:44;25.90;99.90
14473;DHT22;7322;50.872;4.386;2023-07-30T12:15:29;25.90;99.90
14473;DHT22;7322;50.872;4.386;2023-07-30T12:17:57;26.00;99.90
14473;DHT22;7322;50.872;4.386;2023-07-30T12:20:27;25.90;99.90
14473;DHT22;7322;50.872;4.386;2023-07-30T12:22:54;26.00;99.90
14473;DHT22;7322;50.872;4.386;2023-07-30T12:25:25;26.00;99.90
14473;DHT22;7322;50.872;4.386;2023-07-30T12:30:59;26.10;99.90
14473;DHT22;7322;50.872;4.386;2023-07-30T12:33:34;26.10;99.90
14473;DHT22;7322;50.872;4.386;2023-07-30T12:36:01;26.10;99.90
14473;DHT22;7322;50.872;4.386;2023-07-30T12:38:32;26.00;99.90
14473;DHT22;7322;50.872;4.386;2023-07-30T12:41:01;26.10;99.90
14473;DHT22;7322;50.872;4.386;2023-07-30T12:43:28;26.10;99.90
14473;DHT22;7322;50.872;4.386;2023-07-30T12:45:56;26.00;99.90
14473;DHT22;7322;50.872;4.386;2023-07-30T12:48:45;26.00;99.90
14473;DHT22;7322;50.872;4.386;2023-07-30T12:51:25;26.00;99.90
14473;DHT22;7322;50.872;4.386;2023-07-30T12:53:54;26.00;99.90
14473;DHT22;7322;50.872;4.386;2023-07-30T12:56:23;25.90;99.90
14473;DHT22;7322;50.872;4.386;2023-07-30T12:58:51;26.00;99.90
14473;DHT22;7322;50.872;4.386;2023-07-30T13:01:22;26.00;99.90
14473;DHT22;7322;50.872;4.386;2023-07-30T13:03:52;26.00;99.90
14473;DHT22;7322;50.872;4.386;2023-07-30T13:06:22;26.00;99.90
14473;DHT22;7322;50.872;4.386;2023-07-30T13:08:49;26.00;99.90
14473;DHT22;7322;50.872;4.386;2023-07-30T13:11:16;26.00;99.90
14473;DHT22;7322;50.872;4.386;2023-07-30T13:13:56;26.00;99.90
14473;DHT22;7322;50.872;4.386;2023-07-30T13:16:24;26.00;99.90
14473;DHT22;7322;50.872;4.386;2023-07-30T13:18:53;26.00;99.90
14473;DHT22;7322;50.872;4.386;2023-07-30T13:21:22;26.10;99.90
14473;DHT22;7322;50.872;4.386;2023-07-30T13:27:15;26.10;99.90
14473;DHT22;7322;50.872;4.386;2023-07-30T13:29:42;26.10;99.90
14473;DHT22;7322;50.872;4.386;2023-07-30T13:32:22;26.10;99.90
14473;DHT22;7322;50.872;4.386;2023-07-30T13:34:51;26.10;99.90
14473;DHT22;7322;50.872;4.386;2023-07-30T13:37:28;26.10;99.90
14473;DHT22;7322;50.872;4.386;2023-07-30T13:40:13;26.10;99.90
14473;DHT22;7322;50.872;4.386;2023-07-30T13:42:40;26.10;99.90
14473;DHT22;7322;50.872;4.386;2023-07-30T13:45:33;26.10;99.90
14473;DHT22;7322;50.872;4.386;2023-07-30T13:48:07;26.20;99.90
14473;DHT22;7322;50.872;4.386;2023-07-30T13:50:59;26.20;99.90
14473;DHT22;7322;50.872;4.386;2023-07-30T13:54:05;26.20;99.90
14473;DHT22;7322;50.872;4.386;2023-07-30T13:56:38;26.10;99.90
14473;DHT22;7322;50.872;4.386;2023-07-30T13:59:07;26.20;99.90
14473;DHT22;7322;50.872;4.386;2023-07-30T14:01:40;26.20;99.90
14473;DHT22;7322;50.872;4.386;2023-07-30T14:04:18;26.20;99.90
14473;DHT22;7322;50.872;4.386;2023-07-30T14:06:49;26.20;99.90
14473;DHT22;7322;50.872;4.386;2023-07-30T14:09:21;26.10;99.90
14473;DHT22;7322;50.872;4.386;2023-07-30T14:11:57;26.20;99.90
14473;DHT22;7322;50.872;4.386;2023-07-30T14:14:24;26.20;99.90
14473;DHT22;7322;50.872;4.386;2023-07-30T14:16:53;26.20;99.90
14473;DHT22;7322;50.872;4.386;2023-07-30T14:19:21;26.10;99.90
14473;DHT22;7322;50.872;4.386;2023-07-30T14:21:55;26.10;99.90
14473;DHT22;7322;50.872;4.386;2023-07-30T14:24:25;26.20;99.90
14473;DHT22;7322;50.872;4.386;2023-07-30T14:26:54;26.10;99.90
14473;DHT22;7322;50.872;4.386;2023-07-30T14:29:21;26.10;99.90
14473;DHT22;7322;50.872;4.386;2023-07-30T14:31:49;26.10;99.90
14473;DHT22;7322;50.872;4.386;2023-07-30T14:34:17;26.10;99.90
14473;DHT22;7322;50.872;4.386;2023-07-30T14:36:55;26.10;99.90
14473;DHT22;7322;50.872;4.386;2023-07-30T14:39:22;26.20;99.90
14473;DHT22;7322;50.872;4.386;2023-07-30T14:41:58;26.20;99.90
14473;DHT22;7322;50.872;4.386;2023-07-30T14:44:35;26.20;99.90
14473;DHT22;7322;50.872;4.386;2023-07-30T14:47:03;26.20;99.90
14473;DHT22;7322;50.872;4.386;2023-07-30T14:49:38;26.20;99.90
14473;DHT22;7322;50.872;4.386;2023-07-30T14:52:15;26.20;99.90
14473;DHT22;7322;50.872;4.386;2023-07-30T14:54:44;26.20;99.90
14473;DHT22;7322;50.872;4.386;2023-07-30T14:57:11;26.10;99.90
14473;DHT22;7322;50.872;4.386;2023-07-30T14:59:40;26.10;99.90
14473;DHT22;7322;50.872;4.386;2023-07-30T15:02:10;26.20;99.90
14473;DHT22;7322;50.872;4.386;2023-07-30T15:04:40;26.10;99.90
14473;DHT22;7322;50.872;4.386;2023-07-30T15:07:08;26.10;99.90
14473;DHT22;7322;50.872;4.386;2023-07-30T15:09:37;26.10;99.90
14473;DHT22;7322;50.872;4.386;2023-07-30T15:12:05;26.10;99.90
14473;DHT22;7322;50.872;4.386;2023-07-30T15:14:35;26.00;99.90
14473;DHT22;7322;50.872;4.386;2023-07-30T15:17:09;26.00;99.90
14473;DHT22;7322;50.872;4.386;2023-07-30T15:19:39;25.90;99.90
14473;DHT22;7322;50.872;4.386;2023-07-30T15:22:12;25.80;99.90
14473;DHT22;7322;50.872;4.386;2023-07-30T15:24:47;25.80;99.90
14473;DHT22;7322;50.872;4.386;2023-07-30T15:27:23;25.70;99.90
14473;DHT22;7322;50.872;4.386;2023-07-30T15:29:53;25.70;99.90
14473;DHT22;7322;50.872;4.386;2023-07-30T15:32:22;25.60;99.90
14473;DHT22;7322;50.872;4.386;2023-07-30T15:34:56;25.50;99.90
14473;DHT22;7322;50.872;4.386;2023-07-30T15:37:30;25.60;99.90
14473;DHT22;7322;50.872;4.386;2023-07-30T15:40:13;25.60;99.90
14473;DHT22;7322;50.872;4.386;2023-07-30T15:42:42;25.50;99.90
14473;DHT22;7322;50.872;4.386;2023-07-30T15:45:10;25.40;99.90
14473;DHT22;7322;50.872;4.386;2023-07-30T15:47:50;25.40;99.90
14473;DHT22;7322;50.872;4.386;2023-07-30T15:50:19;25.40;99.90
14473;DHT22;7322;50.872;4.386;2023-07-30T15:52:56;25.50;99.90
14473;DHT22;7322;50.872;4.386;2023-07-30T15:55:29;25.50;99.90
14473;DHT22;7322;50.872;4.386;2023-07-30T15:57:58;25.40;99.90
14473;DHT22;7322;50.872;4.386;2023-07-30T16:00:31;25.30;99.90
14473;DHT22;7322;50.872;4.386;2023-07-30T16:03:05;25.30;99.90
14473;DHT22;7322;50.872;4.386;2023-07-30T16:05:46;25.30;99.90
14473;DHT22;7322;50.872;4.386;2023-07-30T16:08:23;25.40;99.90
14473;DHT22;7322;50.872;4.386;2023-07-30T16:11:02;25.30;99.90
14473;DHT22;7322;50.872;4.386;2023-07-30T16:13:33;25.30;99.90
14473;DHT22;7322;50.872;4.386;2023-07-30T16:16:15;25.30;99.90
14473;DHT22;7322;50.872;4.386;2023-07-30T16:24:54;25.10;99.90
14473;DHT22;7322;50.872;4.386;2023-07-30T16:27:24;25.00;99.90
14473;DHT22;7322;50.872;4.386;2023-07-30T16:29:51;25.00;99.90
14473;DHT22;7322;50.872;4.386;2023-07-30T16:32:24;25.00;99.90
14473;DHT22;7322;50.872;4.386;2023-07-30T16:34:51;25.00;99.90
14473;DHT22;7322;50.872;4.386;2023-07-30T16:37:21;25.00;99.90
14473;DHT22;7322;50.872;4.386;2023-07-30T16:39:50;25.00;99.90
14473;DHT22;7322;50.872;4.386;2023-07-30T16:42:21;24.90;99.90
14473;DHT22;7322;50.872;4.386;2023-07-30T16:45:04;24.90;99.90
14473;DHT22;7322;50.872;4.386;2023-07-30T16:47:37;24.90;99.90
14473;DHT22;7322;50.872;4.386;2023-07-30T16:50:05;24.90;99.90
14473;DHT22;7322;50.872;4.386;2023-07-30T16:52:39;24.80;99.90
14473;DHT22;7322;50.872;4.386;2023-07-30T16:55:14;24.70;99.90
14473;DHT22;7322;50.872;4.386;2023-07-30T16:57:52;24.70;99.90